Time;durP1;ratioP1;P1;durP2;ratioP2;P2;SDS_P1;SDS_P2;PMS_P1;PMS_P2;Temp;Humidity;BMP_temperature;BMP_pressure;BME280_temperature;BME280_humidity;BME280_pressure;Samples;Min_cycle;Max_cycle;Signal;HPM_P1;HPM_P2
2022/01/09 00:01:24;;;;;;;39.13;23.67;;;;;;;;;;5040701;28;20047;-68
2022/01/09 00:03:51;;;;;;;32.70;20.70;;;;;;;;;;5037567;28;20071;-68
2022/01/09 00:06:17;;;;;;;41.93;24.93;;;;;;;;;;5033805;28;20440;-67
2022/01/09 00:08:46;;;;;;;38.27;23.60;;;;;;;;;;5023115;28;20064;-68
2022/01/09 00:11:13;;;;;;;36.67;24.97;;;;;;;;;;5036535;28;20042;-68
2022/01/09 00:13:39;;;;;;;46.03;26.73;;;;;;;;;;5035576;28;20038;-68
2022/01/09 00:16:05;;;;;;;49.20;28.40;;;;;;;;;;5035001;28;20052;-68
2022/01/09 00:18:31;;;;;;;34.53;25.83;;;;;;;;;;5032605;28;20057;-68
2022/01/09 00:20:57;;;;;;;56.57;30.10;;;;;;;;;;5039129;28;20045;-68
2022/01/09 00:23:23;;;;;;;53.77;29.47;;;;;;;;;;5030022;28;20053;-68
2022/01/09 00:25:49;;;;;;;55.50;30.13;;;;;;;;;;5030698;28;20056;-68
2022/01/09 00:28:15;;;;;;;53.10;28.53;;;;;;;;;;5028462;28;20492;-67
2022/01/09 00:30:41;;;;;;;44.20;25.47;;;;;;;;;;5028753;28;20042;-68
2022/01/09 00:33:08;;;;;;;50.70;27.67;;;;;;;;;;5034693;28;20466;-68
2022/01/09 00:35:34;;;;;;;42.37;25.73;;;;;;;;;;5031519;28;20052;-68
2022/01/09 00:38:00;;;;;;;47.13;27.30;;;;;;;;;;5035304;28;20064;-68
2022/01/09 00:40:26;;;;;;;52.37;28.00;;;;;;;;;;5038422;28;20046;-68
2022/01/09 00:42:52;;;;;;;54.27;28.97;;;;;;;;;;5027745;28;20045;-68
2022/01/09 00:45:19;;;;;;;50.67;30.33;;;;;;;;;;5026162;28;20504;-68
2022/01/09 00:47:45;;;;;;;57.40;30.67;;;;;;;;;;5035245;28;20048;-68
2022/01/09 00:50:12;;;;;;;43.43;27.83;;;;;;;;;;5020787;28;20098;-68
2022/01/09 00:52:38;;;;;;;59.13;30.47;;;;;;;;;;5010386;28;20046;-68
2022/01/09 00:55:05;;;;;;;70.27;31.97;;;;;;;;;;5028347;28;20080;-68
2022/01/09 00:57:31;;;;;;;58.93;29.73;;;;;;;;;;5028427;28;20053;-69
2022/01/09 00:59:57;;;;;;;53.77;30.20;;;;;;;;;;5029118;28;20578;-68
2022/01/09 01:02:23;;;;;;;64.77;31.80;;;;;;;;;;5027624;28;20102;-68
2022/01/09 01:04:51;;;;;;;70.30;32.47;;;;;;;;;;5028898;28;20049;-69
2022/01/09 01:07:18;;;;;;;59.33;30.40;;;;;;;;;;5026772;28;20065;-68
2022/01/09 01:09:44;;;;;;;67.33;31.83;;;;;;;;;;5027507;28;20053;-68
2022/01/09 01:12:10;;;;;;;60.63;27.97;;;;;;;;;;5028978;28;20050;-68
2022/01/09 01:14:37;;;;;;;48.10;27.07;;;;;;;;;;5027267;28;20079;-69
2022/01/09 01:17:03;;;;;;;53.30;28.40;;;;;;;;;;5027114;28;20058;-68
2022/01/09 01:19:29;;;;;;;53.53;26.33;;;;;;;;;;5028027;28;20048;-68
2022/01/09 01:21:55;;;;;;;55.33;27.37;;;;;;;;;;5028446;28;20754;-68
2022/01/09 01:24:22;;;;;;;63.83;28.67;;;;;;;;;;5028811;28;20614;-68
2022/01/09 01:26:48;;;;;;;44.57;25.97;;;;;;;;;;5027954;28;20423;-67
2022/01/09 01:29:14;;;;;;;56.17;27.73;;;;;;;;;;5028712;28;20502;-68
2022/01/09 01:31:40;;;;;;;53.10;25.40;;;;;;;;;;5027222;28;20124;-68
2022/01/09 01:34:06;;;;;;;49.83;26.17;;;;;;;;;;5027071;28;20045;-68
2022/01/09 01:36:32;;;;;;;43.80;24.73;;;;;;;;;;5008973;28;20046;-68
2022/01/09 01:38:58;;;;;;;68.77;29.03;;;;;;;;;;5026776;28;21672;-68
2022/01/09 01:41:24;;;;;;;62.63;27.20;;;;;;;;;;5026797;28;20046;-68
2022/01/09 01:43:50;;;;;;;75.23;31.23;;;;;;;;;;5028316;28;20045;-68
2022/01/09 01:46:16;;;;;;;52.87;26.47;;;;;;;;;;5028345;28;20041;-68
2022/01/09 01:48:42;;;;;;;52.57;26.07;;;;;;;;;;5028282;28;20088;-68
2022/01/09 01:51:08;;;;;;;59.13;26.93;;;;;;;;;;5028335;28;20080;-68
2022/01/09 01:53:34;;;;;;;46.80;25.17;;;;;;;;;;5028415;28;20052;-68
2022/01/09 01:56:01;;;;;;;59.70;26.37;;;;;;;;;;5027591;28;20455;-68
2022/01/09 01:58:31;;;;;;;63.13;27.30;;;;;;;;;;5027240;28;20060;-68
2022/01/09 02:00:57;;;;;;;44.67;23.57;;;;;;;;;;5028771;28;20053;-67
2022/01/09 02:03:23;;;;;;;43.20;23.90;;;;;;;;;;5027439;28;20061;-68
2022/01/09 02:05:49;;;;;;;47.40;23.70;;;;;;;;;;5027145;28;20403;-69
2022/01/09 02:08:15;;;;;;;67.23;25.93;;;;;;;;;;5028516;28;20049;-68
2022/01/09 02:10:43;;;;;;;48.63;22.47;;;;;;;;;;5028208;28;20547;-68
2022/01/09 02:13:09;;;;;;;59.23;24.67;;;;;;;;;;5028043;28;20107;-69
2022/01/09 02:15:42;;;;;;;67.13;25.43;;;;;;;;;;5031812;28;20433;-68
2022/01/09 02:18:13;;;;;;;56.47;23.87;;;;;;;;;;5031841;28;20415;-68
2022/01/09 02:20:39;;;;;;;50.47;22.30;;;;;;;;;;5031264;28;20054;-68
2022/01/09 02:23:06;;;;;;;65.47;25.07;;;;;;;;;;5031801;28;20469;-68
2022/01/09 02:25:33;;;;;;;48.00;20.77;;;;;;;;;;5030194;28;20049;-68
2022/01/09 02:27:59;;;;;;;40.40;19.73;;;;;;;;;;5031113;28;20128;-68
2022/01/09 02:30:25;;;;;;;79.80;23.73;;;;;;;;;;5031373;28;20069;-68
2022/01/09 02:32:51;;;;;;;35.30;17.70;;;;;;;;;;5031427;28;20099;-68
2022/01/09 02:35:17;;;;;;;31.47;17.33;;;;;;;;;;5031307;28;20045;-68
2022/01/09 02:37:43;;;;;;;41.17;19.47;;;;;;;;;;5030882;28;20049;-68
2022/01/09 02:40:09;;;;;;;42.83;18.93;;;;;;;;;;5031074;28;20037;-68
2022/01/09 02:42:35;;;;;;;38.00;18.00;;;;;;;;;;5030759;28;20064;-69
2022/01/09 02:45:03;;;;;;;44.47;18.57;;;;;;;;;;5029850;28;20482;-69
2022/01/09 02:47:32;;;;;;;48.23;18.83;;;;;;;;;;5031191;28;20618;-69
2022/01/09 02:50:06;;;;;;;56.73;20.00;;;;;;;;;;5030578;28;20056;-68
2022/01/09 02:52:35;;;;;;;35.50;16.97;;;;;;;;;;5030923;28;20045;-68
2022/01/09 02:55:12;;;;;;;37.43;15.53;;;;;;;;;;5031067;28;20077;-68
2022/01/09 02:57:48;;;;;;;51.50;18.40;;;;;;;;;;5030657;28;20053;-68
2022/01/09 03:00:16;;;;;;;41.13;15.87;;;;;;;;;;5029685;28;20095;-68
2022/01/09 03:02:42;;;;;;;40.07;15.37;;;;;;;;;;5030897;28;20500;-66
2022/01/09 03:05:09;;;;;;;30.17;12.23;;;;;;;;;;5030490;28;20050;-66
2022/01/09 03:07:35;;;;;;;30.07;9.30;;;;;;;;;;5031153;28;20049;-66
2022/01/09 03:10:01;;;;;;;34.20;7.87;;;;;;;;;;5029689;28;20076;-65
2022/01/09 03:12:27;;;;;;;46.80;9.10;;;;;;;;;;5030483;28;20114;-65
2022/01/09 03:14:53;;;;;;;31.57;6.57;;;;;;;;;;5030538;28;20155;-66
2022/01/09 03:17:19;;;;;;;36.77;6.27;;;;;;;;;;5030879;28;20067;-65
2022/01/09 03:19:45;;;;;;;42.30;6.63;;;;;;;;;;5045787;28;20063;-65
2022/01/09 03:22:11;;;;;;;34.63;7.27;;;;;;;;;;5031027;28;20033;-65
2022/01/09 03:24:37;;;;;;;42.60;8.90;;;;;;;;;;5030198;28;20047;-65
2022/01/09 03:27:03;;;;;;;49.90;6.90;;;;;;;;;;5020271;28;20046;-65
2022/01/09 03:29:29;;;;;;;44.97;7.13;;;;;;;;;;5030406;28;20455;-65
2022/01/09 03:31:56;;;;;;;51.97;7.87;;;;;;;;;;5029719;28;20041;-65
2022/01/09 03:34:22;;;;;;;43.47;8.07;;;;;;;;;;5030527;28;20064;-65
2022/01/09 03:36:48;;;;;;;45.40;8.03;;;;;;;;;;5030135;28;20042;-65
2022/01/09 03:39:14;;;;;;;60.23;7.70;;;;;;;;;;5029844;28;20270;-65
2022/01/09 03:41:40;;;;;;;55.27;8.43;;;;;;;;;;5029623;28;20069;-65
2022/01/09 03:44:06;;;;;;;54.77;8.83;;;;;;;;;;5030265;28;20049;-65
2022/01/09 03:46:32;;;;;;;56.63;8.23;;;;;;;;;;5029089;28;20137;-65
2022/01/09 03:48:58;;;;;;;45.40;7.53;;;;;;;;;;5029968;28;20174;-65
2022/01/09 03:51:29;;;;;;;57.33;9.70;;;;;;;;;;5030197;28;20069;-65
2022/01/09 03:53:55;;;;;;;49.77;7.83;;;;;;;;;;5028321;28;20053;-65
2022/01/09 03:56:21;;;;;;;50.00;7.67;;;;;;;;;;5014047;28;20439;-65
2022/01/09 03:58:47;;;;;;;62.70;11.10;;;;;;;;;;5023789;28;20103;-65
2022/01/09 04:01:13;;;;;;;57.93;9.37;;;;;;;;;;5027973;28;20456;-65
2022/01/09 04:03:39;;;;;;;56.83;9.10;;;;;;;;;;5029525;28;20080;-65
2022/01/09 04:06:05;;;;;;;44.30;6.97;;;;;;;;;;5011277;28;20081;-65
2022/01/09 04:08:34;;;;;;;55.07;8.53;;;;;;;;;;5029220;28;20145;-65
2022/01/09 04:11:01;;;;;;;46.53;9.57;;;;;;;;;;5027561;28;20128;-65
2022/01/09 04:13:27;;;;;;;48.17;8.40;;;;;;;;;;5016958;28;20045;-65
2022/01/09 04:15:53;;;;;;;47.43;6.73;;;;;;;;;;5025370;28;20041;-65
2022/01/09 04:18:20;;;;;;;63.60;8.20;;;;;;;;;;5051560;28;20058;-65
2022/01/09 04:20:46;;;;;;;43.20;9.03;;;;;;;;;;5028911;28;20069;-65
2022/01/09 04:23:13;;;;;;;52.17;9.07;;;;;;;;;;5034624;28;20046;-66
2022/01/09 04:25:39;;;;;;;48.07;9.07;;;;;;;;;;5017052;28;20112;-66
2022/01/09 04:28:05;;;;;;;47.57;8.90;;;;;;;;;;5028206;28;20546;-65
2022/01/09 04:30:31;;;;;;;63.60;9.47;;;;;;;;;;5028617;28;20141;-65
2022/01/09 04:32:57;;;;;;;32.53;6.20;;;;;;;;;;5027748;28;20041;-65
2022/01/09 04:35:23;;;;;;;46.30;6.87;;;;;;;;;;5027893;28;20044;-65
2022/01/09 04:37:50;;;;;;;48.90;8.63;;;;;;;;;;5021396;28;20041;-65
2022/01/09 04:40:18;;;;;;;38.60;6.73;;;;;;;;;;5025886;28;20072;-65
2022/01/09 04:42:48;;;;;;;50.73;6.93;;;;;;;;;;5034972;28;20038;-68
2022/01/09 04:45:16;;;;;;;42.30;5.60;;;;;;;;;;5032249;28;20626;-67
2022/01/09 04:47:45;;;;;;;40.07;5.10;;;;;;;;;;5030482;28;20116;-68
2022/01/09 04:50:17;;;;;;;38.93;6.30;;;;;;;;;;5025819;28;20054;-68
2022/01/09 04:52:43;;;;;;;35.67;5.20;;;;;;;;;;5031627;28;20038;-68
2022/01/09 04:55:09;;;;;;;34.87;6.73;;;;;;;;;;5029753;28;20495;-68
2022/01/09 04:57:35;;;;;;;44.90;6.37;;;;;;;;;;5033544;28;20056;-68
2022/01/09 05:00:02;;;;;;;33.93;6.67;;;;;;;;;;5036094;28;20415;-68
2022/01/09 05:02:28;;;;;;;33.47;4.50;;;;;;;;;;5035706;28;20034;-68
2022/01/09 05:04:54;;;;;;;33.03;4.97;;;;;;;;;;5034865;28;20060;-67
2022/01/09 05:07:20;;;;;;;32.50;4.50;;;;;;;;;;5029594;28;20049;-68
2022/01/09 05:09:46;;;;;;;28.17;4.97;;;;;;;;;;5026579;28;20096;-68
2022/01/09 05:12:12;;;;;;;19.40;3.50;;;;;;;;;;5022086;28;20045;-68
2022/01/09 05:14:38;;;;;;;19.77;3.67;;;;;;;;;;5027923;28;20076;-68
2022/01/09 05:17:04;;;;;;;24.83;3.67;;;;;;;;;;5029844;28;20169;-68
2022/01/09 05:19:32;;;;;;;27.33;4.33;;;;;;;;;;5034732;28;20103;-68
2022/01/09 05:21:59;;;;;;;25.57;4.17;;;;;;;;;;5048861;28;20492;-68
2022/01/09 05:24:25;;;;;;;26.23;4.13;;;;;;;;;;5037321;28;20128;-68
2022/01/09 05:26:51;;;;;;;32.93;5.70;;;;;;;;;;5035851;28;20042;-68
2022/01/09 05:29:17;;;;;;;28.47;3.77;;;;;;;;;;5031302;28;20127;-68
2022/01/09 05:31:44;;;;;;;22.27;3.87;;;;;;;;;;5029574;28;20033;-67
2022/01/09 05:34:10;;;;;;;33.13;4.27;;;;;;;;;;5032581;28;20041;-67
2022/01/09 05:36:36;;;;;;;39.53;5.70;;;;;;;;;;5033785;28;20069;-67
2022/01/09 05:39:03;;;;;;;29.00;4.43;;;;;;;;;;5029362;28;20048;-68
2022/01/09 05:41:29;;;;;;;44.57;7.80;;;;;;;;;;5030718;28;20052;-68
2022/01/09 05:43:55;;;;;;;21.33;3.73;;;;;;;;;;5028389;28;20053;-69
2022/01/09 05:46:22;;;;;;;32.03;4.30;;;;;;;;;;5028649;28;20418;-68
2022/01/09 05:48:48;;;;;;;39.23;4.33;;;;;;;;;;5036261;28;20095;-68
2022/01/09 05:51:13;;;;;;;27.37;5.60;;;;;;;;;;5034507;28;20049;-68
2022/01/09 05:53:39;;;;;;;35.60;5.27;;;;;;;;;;5038604;28;20491;-68
2022/01/09 05:56:05;;;;;;;29.27;4.77;;;;;;;;;;5037949;28;20045;-68
2022/01/09 05:58:33;;;;;;;26.60;4.77;;;;;;;;;;5041828;28;20050;-67
2022/01/09 06:00:59;;;;;;;33.53;4.30;;;;;;;;;;5038545;28;20045;-68
2022/01/09 06:03:25;;;;;;;29.03;4.67;;;;;;;;;;5036804;28;20144;-68
2022/01/09 06:05:51;;;;;;;32.93;4.83;;;;;;;;;;5038045;28;20566;-68
2022/01/09 06:08:18;;;;;;;24.93;4.03;;;;;;;;;;5036285;28;20124;-68
2022/01/09 06:10:44;;;;;;;34.37;3.70;;;;;;;;;;5051514;28;20110;-68
2022/01/09 06:13:10;;;;;;;24.20;4.50;;;;;;;;;;5039802;28;20049;-68
2022/01/09 06:15:36;;;;;;;35.93;5.03;;;;;;;;;;5036859;28;20099;-68
2022/01/09 06:18:02;;;;;;;33.53;5.23;;;;;;;;;;5020597;28;20054;-68
2022/01/09 06:20:28;;;;;;;23.97;3.47;;;;;;;;;;5024278;28;20495;-68
2022/01/09 06:22:54;;;;;;;32.03;5.30;;;;;;;;;;5036290;28;20038;-68
2022/01/09 06:25:21;;;;;;;22.67;4.43;;;;;;;;;;5039368;28;20066;-68
2022/01/09 06:27:47;;;;;;;23.23;4.23;;;;;;;;;;5035178;28;20080;-68
2022/01/09 06:30:13;;;;;;;17.53;3.10;;;;;;;;;;5036783;28;20071;-68
2022/01/09 06:32:39;;;;;;;22.23;3.40;;;;;;;;;;5038006;28;20055;-68
2022/01/09 06:35:06;;;;;;;28.47;4.50;;;;;;;;;;5040292;28;20056;-68
2022/01/09 06:37:32;;;;;;;18.70;3.13;;;;;;;;;;5037560;28;20049;-68
2022/01/09 06:39:58;;;;;;;23.47;3.17;;;;;;;;;;5038761;28;20048;-68
2022/01/09 06:42:25;;;;;;;22.07;3.37;;;;;;;;;;5035027;28;20041;-68
2022/01/09 06:44:51;;;;;;;18.83;3.50;;;;;;;;;;5035744;28;20041;-68
2022/01/09 06:47:17;;;;;;;18.57;3.03;;;;;;;;;;5038104;28;20090;-69
2022/01/09 06:49:43;;;;;;;17.80;3.23;;;;;;;;;;5035038;28;20107;-68
2022/01/09 06:52:09;;;;;;;19.33;3.33;;;;;;;;;;5037490;28;20056;-68
2022/01/09 06:54:35;;;;;;;25.10;4.40;;;;;;;;;;5036827;28;20435;-68
2022/01/09 06:57:01;;;;;;;21.63;4.90;;;;;;;;;;5038132;28;20044;-68
2022/01/09 06:59:27;;;;;;;14.67;2.63;;;;;;;;;;5029031;28;20048;-68
2022/01/09 07:01:53;;;;;;;22.17;4.63;;;;;;;;;;5026569;28;20042;-68
2022/01/09 07:04:19;;;;;;;16.17;2.77;;;;;;;;;;5018493;28;20550;-68
2022/01/09 07:06:45;;;;;;;15.77;3.27;;;;;;;;;;5021005;28;20132;-68
2022/01/09 07:09:11;;;;;;;21.07;4.27;;;;;;;;;;5017959;28;20042;-68
2022/01/09 07:11:37;;;;;;;14.60;2.23;;;;;;;;;;5018609;28;20042;-67
2022/01/09 07:14:03;;;;;;;11.00;2.10;;;;;;;;;;5028042;28;20045;-68
2022/01/09 07:16:29;;;;;;;14.33;2.17;;;;;;;;;;5027202;28;20049;-68
2022/01/09 07:18:55;;;;;;;14.47;2.33;;;;;;;;;;5047218;28;21529;-68
2022/01/09 07:21:21;;;;;;;10.43;2.23;;;;;;;;;;5023791;28;20042;-68
2022/01/09 07:23:47;;;;;;;16.07;2.40;;;;;;;;;;5021558;28;20046;-68
2022/01/09 07:26:13;;;;;;;10.63;2.20;;;;;;;;;;5021950;28;20091;-68
2022/01/09 07:28:39;;;;;;;13.50;2.70;;;;;;;;;;5029818;28;20134;-68
2022/01/09 07:31:05;;;;;;;13.00;2.83;;;;;;;;;;5020809;28;20042;-68
2022/01/09 07:33:31;;;;;;;23.13;3.13;;;;;;;;;;5028245;28;20045;-68
2022/01/09 07:35:58;;;;;;;16.93;3.53;;;;;;;;;;5028161;28;20053;-69
2022/01/09 07:38:24;;;;;;;16.47;2.53;;;;;;;;;;5029154;28;20431;-69
2022/01/09 07:40:51;;;;;;;20.70;2.83;;;;;;;;;;5028963;28;20048;-68
2022/01/09 07:43:17;;;;;;;24.67;4.23;;;;;;;;;;5028780;28;20511;-68
2022/01/09 07:45:43;;;;;;;22.67;3.77;;;;;;;;;;5023328;28;20104;-68
2022/01/09 07:48:09;;;;;;;13.90;2.63;;;;;;;;;;5022887;28;20492;-69
2022/01/09 07:50:35;;;;;;;16.23;2.80;;;;;;;;;;5025950;28;20048;-68
2022/01/09 07:53:02;;;;;;;16.37;2.77;;;;;;;;;;5019347;28;20041;-69
2022/01/09 07:55:28;;;;;;;12.93;1.87;;;;;;;;;;5028181;28;20041;-68
2022/01/09 07:57:54;;;;;;;12.13;3.50;;;;;;;;;;5019924;28;20476;-69
2022/01/09 08:00:21;;;;;;;19.77;2.70;;;;;;;;;;5026963;28;20041;-69
2022/01/09 08:02:47;;;;;;;16.67;2.87;;;;;;;;;;5027902;28;20049;-68
2022/01/09 08:05:15;;;;;;;17.63;3.40;;;;;;;;;;5026554;28;20052;-68
2022/01/09 08:07:41;;;;;;;15.23;2.90;;;;;;;;;;5027542;28;20041;-69
2022/01/09 08:10:08;;;;;;;18.77;3.20;;;;;;;;;;5023323;28;20195;-68
2022/01/09 08:12:34;;;;;;;15.20;3.17;;;;;;;;;;5026393;28;20041;-68
2022/01/09 08:15:00;;;;;;;12.00;2.00;;;;;;;;;;5021954;28;20044;-68
2022/01/09 08:17:26;;;;;;;10.83;2.47;;;;;;;;;;5027740;28;20057;-68
2022/01/09 08:19:52;;;;;;;16.97;2.77;;;;;;;;;;5022494;28;20127;-68
2022/01/09 08:22:18;;;;;;;13.70;2.30;;;;;;;;;;5026482;28;20496;-68
2022/01/09 08:24:44;;;;;;;13.93;2.10;;;;;;;;;;5026789;28;20530;-68
2022/01/09 08:27:10;;;;;;;18.20;3.10;;;;;;;;;;5027183;28;20068;-68
2022/01/09 08:29:40;;;;;;;21.13;3.90;;;;;;;;;;5025958;28;20475;-69
2022/01/09 08:32:07;;;;;;;19.47;2.90;;;;;;;;;;5020167;28;20040;-69
2022/01/09 08:34:33;;;;;;;19.63;3.47;;;;;;;;;;5027595;28;20102;-69
2022/01/09 08:36:59;;;;;;;15.93;3.00;;;;;;;;;;5025915;28;20068;-69
2022/01/09 08:39:25;;;;;;;10.40;2.60;;;;;;;;;;5021900;28;20412;-69
2022/01/09 08:41:51;;;;;;;13.63;2.20;;;;;;;;;;5026313;28;20421;-69
2022/01/09 08:44:17;;;;;;;20.70;3.97;;;;;;;;;;5026188;28;20515;-68
2022/01/09 08:46:43;;;;;;;23.87;3.60;;;;;;;;;;5025770;28;20084;-68
2022/01/09 08:49:10;;;;;;;20.30;2.90;;;;;;;;;;5022760;28;20151;-69
2022/01/09 08:51:36;;;;;;;17.17;4.37;;;;;;;;;;5023050;28;20060;-69
2022/01/09 08:54:02;;;;;;;16.97;2.87;;;;;;;;;;5025512;28;20094;-68
2022/01/09 08:56:28;;;;;;;20.60;2.90;;;;;;;;;;5027074;28;20037;-68
2022/01/09 08:58:55;;;;;;;22.20;3.37;;;;;;;;;;5023369;28;20153;-69
2022/01/09 09:01:21;;;;;;;19.53;4.13;;;;;;;;;;5022085;28;20041;-68
2022/01/09 09:03:47;;;;;;;14.70;3.20;;;;;;;;;;5026983;28;20033;-69
2022/01/09 09:06:14;;;;;;;19.40;3.20;;;;;;;;;;5019164;28;20428;-68
2022/01/09 09:08:41;;;;;;;24.63;4.47;;;;;;;;;;5022959;28;20931;-68
2022/01/09 09:11:07;;;;;;;24.77;4.23;;;;;;;;;;5026996;28;20073;-68
2022/01/09 09:13:34;;;;;;;21.90;3.37;;;;;;;;;;5026794;28;20049;-68
2022/01/09 09:16:00;;;;;;;22.80;3.53;;;;;;;;;;5025749;28;20107;-68
2022/01/09 09:18:26;;;;;;;20.50;3.60;;;;;;;;;;5015600;28;20057;-68
2022/01/09 09:20:52;;;;;;;20.40;3.87;;;;;;;;;;5015011;28;20103;-68
2022/01/09 09:23:18;;;;;;;30.07;4.87;;;;;;;;;;5024183;28;20046;-68
2022/01/09 09:25:44;;;;;;;20.37;4.37;;;;;;;;;;5024315;28;20057;-69
2022/01/09 09:28:10;;;;;;;26.63;6.50;;;;;;;;;;5029439;28;20041;-69
2022/01/09 09:30:37;;;;;;;24.43;4.27;;;;;;;;;;5030843;28;20533;-69
2022/01/09 09:33:05;;;;;;;19.20;4.10;;;;;;;;;;5028979;28;20520;-68
2022/01/09 09:35:31;;;;;;;20.10;2.90;;;;;;;;;;5039177;28;20464;-69
2022/01/09 09:37:57;;;;;;;18.90;3.70;;;;;;;;;;5028896;28;20053;-69
2022/01/09 09:40:23;;;;;;;26.30;4.13;;;;;;;;;;5030022;28;21137;-68
2022/01/09 09:42:49;;;;;;;25.30;4.17;;;;;;;;;;5029724;28;20041;-69
2022/01/09 09:45:15;;;;;;;18.50;3.33;;;;;;;;;;5027491;28;20044;-68
2022/01/09 09:47:42;;;;;;;35.33;4.33;;;;;;;;;;5025541;28;20037;-69
2022/01/09 09:50:09;;;;;;;26.73;4.97;;;;;;;;;;5030050;28;20120;-68
2022/01/09 09:52:35;;;;;;;36.57;5.17;;;;;;;;;;5030432;28;20132;-69
2022/01/09 09:55:01;;;;;;;36.33;5.03;;;;;;;;;;5028614;28;20041;-69
2022/01/09 09:57:27;;;;;;;26.77;4.90;;;;;;;;;;5027779;28;20057;-68
2022/01/09 10:00:06;;;;;;;26.17;5.47;;;;;;;;;;5025998;28;20128;-68
2022/01/09 10:02:45;;;;;;;30.70;4.87;;;;;;;;;;5034257;28;20137;-69
2022/01/09 10:05:12;;;;;;;23.70;5.23;;;;;;;;;;5054835;28;20132;-68
2022/01/09 10:07:38;;;;;;;18.40;4.03;;;;;;;;;;5035302;28;20060;-68
2022/01/09 10:10:08;;;;;;;24.90;4.37;;;;;;;;;;5036568;28;20333;-68
2022/01/09 10:12:34;;;;;;;22.93;3.77;;;;;;;;;;5036417;28;20053;-68
2022/01/09 10:15:02;;;;;;;34.23;6.67;;;;;;;;;;5038702;28;20415;-68
2022/01/09 10:17:28;;;;;;;25.50;3.80;;;;;;;;;;5036832;28;20053;-68
2022/01/09 10:19:57;;;;;;;20.63;5.03;;;;;;;;;;5032889;28;20095;-68
2022/01/09 10:22:23;;;;;;;16.27;4.00;;;;;;;;;;5034533;28;20045;-68
2022/01/09 10:24:49;;;;;;;18.80;4.10;;;;;;;;;;5037650;28;20064;-68
2022/01/09 10:27:35;;;;;;;26.13;3.80;;;;;;;;;;5030594;28;20495;-68
2022/01/09 10:30:02;;;;;;;24.50;4.30;;;;;;;;;;5036549;28;20542;-68
2022/01/09 10:32:29;;;;;;;22.10;4.47;;;;;;;;;;5026305;28;20080;-68
2022/01/09 10:35:13;;;;;;;16.90;4.03;;;;;;;;;;5027870;28;20419;-68
2022/01/09 10:37:40;;;;;;;23.63;5.37;;;;;;;;;;5018860;28;21553;-68
2022/01/09 10:40:08;;;;;;;23.93;3.80;;;;;;;;;;5027115;28;20041;-68
2022/01/09 10:42:34;;;;;;;22.63;4.00;;;;;;;;;;5028195;28;20131;-68
2022/01/09 10:45:22;;;;;;;22.50;4.70;;;;;;;;;;5027292;28;20041;-69
2022/01/09 10:47:49;;;;;;;18.27;3.90;;;;;;;;;;5025529;28;20045;-68
2022/01/09 10:50:29;;;;;;;22.53;3.73;;;;;;;;;;5024961;28;20091;-69
2022/01/09 10:53:15;;;;;;;22.40;3.90;;;;;;;;;;5031278;28;20033;-68
2022/01/09 10:55:41;;;;;;;24.00;3.83;;;;;;;;;;5027409;28;20045;-69
2022/01/09 10:58:18;;;;;;;25.17;4.53;;;;;;;;;;5021760;28;20056;-69
2022/01/09 11:00:44;;;;;;;23.30;4.60;;;;;;;;;;5050670;28;20045;-69
2022/01/09 11:03:10;;;;;;;18.67;3.80;;;;;;;;;;5021454;28;20049;-69
2022/01/09 11:05:36;;;;;;;21.23;5.23;;;;;;;;;;5035563;28;20041;-69
2022/01/09 11:08:03;;;;;;;16.17;2.93;;;;;;;;;;5044383;28;20049;-69
2022/01/09 11:10:29;;;;;;;31.73;4.50;;;;;;;;;;5029508;28;20140;-69
2022/01/09 11:12:59;;;;;;;21.30;5.60;;;;;;;;;;5029045;28;20053;-68
2022/01/09 11:15:29;;;;;;;16.77;3.67;;;;;;;;;;5033923;28;20103;-69
2022/01/09 11:17:58;;;;;;;29.53;7.20;;;;;;;;;;4997579;28;1055693;-69
2022/01/09 11:20:25;;;;;;;32.70;5.37;;;;;;;;;;5042428;28;20048;-68
2022/01/09 11:22:53;;;;;;;17.47;4.17;;;;;;;;;;5039669;28;20071;-68
2022/01/09 11:25:20;;;;;;;26.67;3.53;;;;;;;;;;5029512;28;20048;-68
2022/01/09 11:27:49;;;;;;;14.37;4.43;;;;;;;;;;5028358;28;20061;-68
2022/01/09 11:30:34;;;;;;;22.90;4.27;;;;;;;;;;5035807;28;20084;-68
2022/01/09 11:33:11;;;;;;;15.03;3.30;;;;;;;;;;5039989;28;20052;-69
2022/01/09 11:36:04;;;;;;;22.33;2.83;;;;;;;;;;5021061;28;20499;-69
2022/01/09 11:38:56;;;;;;;23.38;2.85;;;;;;;;;;5039660;28;20050;-69
2022/01/09 11:41:27;;;;;;;12.50;3.63;;;;;;;;;;5029525;28;20037;-69
2022/01/09 11:44:02;;;;;;;14.97;3.10;;;;;;;;;;5028506;28;20046;-69
2022/01/09 11:46:29;;;;;;;14.83;3.07;;;;;;;;;;5030544;28;20049;-69
2022/01/09 11:48:55;;;;;;;19.03;4.10;;;;;;;;;;5036852;28;20077;-68
2022/01/09 11:51:25;;;;;;;22.33;4.77;;;;;;;;;;5033173;28;20483;-69
2022/01/09 11:53:58;;;;;;;22.07;4.40;;;;;;;;;;5038303;28;20403;-69
2022/01/09 11:56:42;;;;;;;26.73;4.17;;;;;;;;;;5049176;28;20045;-69
2022/01/09 11:59:18;;;;;;;23.47;4.97;;;;;;;;;;5043733;28;20129;-69
2022/01/09 12:01:45;;;;;;;23.73;4.90;;;;;;;;;;5036477;28;20454;-69
2022/01/09 12:04:29;;;;;;;21.43;4.23;;;;;;;;;;5030999;28;20590;-69
2022/01/09 12:06:56;;;;;;;20.73;4.03;;;;;;;;;;5045366;28;20572;-70
2022/01/09 12:09:42;;;;;;;29.47;5.17;;;;;;;;;;5040035;28;20052;-69
2022/01/09 12:12:33;;;;;;;29.33;5.00;;;;;;;;;;5030646;28;20092;-70
2022/01/09 12:17:26;;;;;;;24.87;2.93;;;;;;;;;;5029010;28;20050;-69
2022/01/09 12:20:08;;;;;;;20.10;3.60;;;;;;;;;;5028038;28;20061;-69
2022/01/09 12:22:43;;;;;;;20.80;3.37;;;;;;;;;;5028154;28;20499;-69
2022/01/09 12:25:24;;;;;;;12.57;2.60;;;;;;;;;;5027905;28;20587;-68
2022/01/09 12:27:54;;;;;;;17.50;2.87;;;;;;;;;;5027703;28;20053;-69
2022/01/09 12:30:41;;;;;;;16.17;2.53;;;;;;;;;;5029070;28;20049;-68
2022/01/09 12:33:10;;;;;;;13.77;2.63;;;;;;;;;;5029228;28;20574;-68
2022/01/09 12:35:41;;;;;;;9.23;1.90;;;;;;;;;;5029389;28;20049;-68
2022/01/09 12:38:07;;;;;;;16.60;2.47;;;;;;;;;;5027935;28;20514;-68
2022/01/09 12:40:37;;;;;;;18.70;3.03;;;;;;;;;;5028843;28;20072;-69
2022/01/09 12:43:03;;;;;;;11.73;2.23;;;;;;;;;;5029068;28;20045;-68
2022/01/09 12:45:29;;;;;;;20.23;2.93;;;;;;;;;;5027732;28;20085;-68
2022/01/09 12:47:56;;;;;;;22.00;2.97;;;;;;;;;;5028725;28;20155;-68
2022/01/09 12:50:29;;;;;;;20.40;2.93;;;;;;;;;;5027609;28;20627;-68
2022/01/09 12:53:15;;;;;;;15.93;3.38;;;;;;;;;;5028560;28;20080;-68
2022/01/09 12:55:57;;;;;;;17.57;2.50;;;;;;;;;;5027479;28;20046;-68
2022/01/09 12:58:27;;;;;;;13.40;2.53;;;;;;;;;;5027158;28;20063;-68
2022/01/09 13:00:54;;;;;;;15.33;2.40;;;;;;;;;;5028697;28;20056;-68
2022/01/09 13:03:25;;;;;;;16.87;3.40;;;;;;;;;;5028154;28;20186;-68
2022/01/09 13:05:55;;;;;;;17.63;3.80;;;;;;;;;;5028778;28;20056;-68
2022/01/09 13:08:22;;;;;;;16.23;2.80;;;;;;;;;;5028545;28;20045;-68
2022/01/09 13:11:05;;;;;;;18.93;2.63;;;;;;;;;;5028841;28;20080;-68
2022/01/09 13:13:32;;;;;;;13.37;2.37;;;;;;;;;;5027324;28;20064;-68
2022/01/09 13:15:58;;;;;;;14.53;2.43;;;;;;;;;;5028410;28;20045;-68
2022/01/09 13:18:38;;;;;;;22.33;3.13;;;;;;;;;;5027108;28;20061;-68
2022/01/09 13:21:24;;;;;;;18.73;2.47;;;;;;;;;;5027970;28;20056;-68
2022/01/09 13:23:59;;;;;;;20.53;3.87;;;;;;;;;;5028548;28;20065;-68
2022/01/09 13:26:27;;;;;;;16.17;2.60;;;;;;;;;;5028498;28;20096;-68
2022/01/09 13:28:53;;;;;;;24.37;3.87;;;;;;;;;;5028455;28;20511;-68
2022/01/09 13:31:21;;;;;;;15.63;3.07;;;;;;;;;;5027312;28;20408;-67
2022/01/09 13:33:51;;;;;;;17.23;4.30;;;;;;;;;;5028468;28;20056;-67
2022/01/09 13:36:31;;;;;;;29.57;5.83;;;;;;;;;;5026909;28;20590;-68
2022/01/09 13:38:58;;;;;;;28.73;3.93;;;;;;;;;;5028386;28;20106;-68
2022/01/09 13:41:24;;;;;;;20.87;3.40;;;;;;;;;;5028025;28;20446;-68
2022/01/09 13:43:50;;;;;;;20.47;3.60;;;;;;;;;;5028131;28;20133;-68
2022/01/09 13:46:16;;;;;;;20.13;3.10;;;;;;;;;;5026927;28;20133;-68
2022/01/09 13:48:43;;;;;;;15.63;3.07;;;;;;;;;;5010412;28;20132;-68
2022/01/09 13:51:09;;;;;;;12.43;2.50;;;;;;;;;;5008517;28;20056;-68
2022/01/09 13:53:35;;;;;;;20.47;3.00;;;;;;;;;;5007092;28;20046;-67
2022/01/09 13:56:05;;;;;;;21.53;3.50;;;;;;;;;;5008481;28;20471;-68
2022/01/09 13:58:31;;;;;;;20.07;3.00;;;;;;;;;;5019105;28;20049;-67
2022/01/09 14:00:57;;;;;;;19.53;4.27;;;;;;;;;;5027805;28;20048;-68
2022/01/09 14:03:28;;;;;;;15.90;3.10;;;;;;;;;;5027157;28;20061;-68
2022/01/09 14:05:54;;;;;;;16.83;2.20;;;;;;;;;;5026681;28;20087;-67
2022/01/09 14:08:21;;;;;;;11.17;2.23;;;;;;;;;;5028315;28;20057;-68
2022/01/09 14:10:49;;;;;;;10.70;2.23;;;;;;;;;;5029136;28;20155;-67
2022/01/09 14:13:25;;;;;;;14.10;2.90;;;;;;;;;;5031560;28;20050;-68
2022/01/09 14:15:53;;;;;;;17.10;3.00;;;;;;;;;;5031467;28;20052;-68
2022/01/09 14:18:23;;;;;;;11.40;2.57;;;;;;;;;;5031609;28;20424;-67
2022/01/09 14:20:51;;;;;;;21.60;2.77;;;;;;;;;;5031323;28;20103;-68
2022/01/09 14:23:17;;;;;;;45.73;5.40;;;;;;;;;;5031443;28;20088;-68
2022/01/09 14:25:46;;;;;;;12.30;2.43;;;;;;;;;;5031482;28;20045;-68
2022/01/09 14:28:14;;;;;;;14.20;2.77;;;;;;;;;;5031084;28;20068;-68
2022/01/09 14:30:42;;;;;;;12.40;3.40;;;;;;;;;;5031409;28;20045;-67
2022/01/09 14:33:12;;;;;;;16.57;2.90;;;;;;;;;;5047276;28;20148;-68